Time;durP1;ratioP1;P1;durP2;ratioP2;P2;SDS_P1;SDS_P2;PMS_P1;PMS_P2;Temp;Humidity;BMP_temperature;BMP_pressure;BME280_temperature;BME280_humidity;BME280_pressure;Samples;Min_cycle;Max_cycle;Signal;HPM_P1;HPM_P2
2022/09/22 00:01:37;;;;;;;11.33;7.63;;;12.20;99.90;;;;;;5064994;28;20200;-33
2022/09/22 00:04:11;;;;;;;13.40;7.63;;;12.10;99.90;;;;;;5050325;28;20208;-33
2022/09/22 00:06:42;;;;;;;10.63;6.70;;;12.10;99.90;;;;;;5052372;28;20234;-33
2022/09/22 00:09:12;;;;;;;10.57;6.20;;;12.10;99.90;;;;;;5052263;28;20231;-33
2022/09/22 00:11:45;;;;;;;5.93;4.53;;;12.10;99.90;;;;;;5061628;28;20278;-33
2022/09/22 00:14:25;;;;;;;6.73;4.30;;;12.00;99.90;;;;;;5046633;28;20216;-33
2022/09/22 00:16:56;;;;;;;4.57;3.80;;;12.00;99.90;;;;;;5049537;28;20285;-33
2022/09/22 00:19:28;;;;;;;7.93;5.47;;;12.00;99.90;;;;;;5046902;28;20208;-34
2022/09/22 00:21:58;;;;;;;9.43;5.87;;;11.90;99.90;;;;;;5051038;28;20196;-31
2022/09/22 00:24:28;;;;;;;7.37;4.80;;;11.90;99.90;;;;;;5046540;28;20671;-32
2022/09/22 00:26:59;;;;;;;6.77;4.30;;;11.90;99.90;;;;;;5059959;28;20200;-34
2022/09/22 00:29:29;;;;;;;7.67;5.23;;;11.80;99.90;;;;;;5055764;28;20208;-35
2022/09/22 00:31:57;;;;;;;7.97;5.63;;;11.80;99.90;;;;;;5057614;28;20211;-34
2022/09/22 00:34:30;;;;;;;12.23;6.77;;;11.80;99.90;;;;;;5053471;28;20204;-33
2022/09/22 00:37:00;;;;;;;12.03;7.23;;;11.80;99.90;;;;;;5049283;28;20228;-34
2022/09/22 00:39:29;;;;;;;13.33;6.83;;;11.70;99.90;;;;;;5054314;28;20288;-34
2022/09/22 00:41:56;;;;;;;11.97;6.93;;;11.70;99.90;;;;;;5049604;28;20257;-33
2022/09/22 00:44:43;;;;;;;7.73;5.80;;;11.70;99.90;;;;;;5062504;28;21461;-33
2022/09/22 00:47:29;;;;;;;10.73;6.30;;;11.70;99.90;;;;;;5048985;28;20207;-34
2022/09/22 00:50:22;;;;;;;6.97;4.73;;;11.70;99.90;;;;;;5045908;28;20254;-33
2022/09/22 00:52:57;;;;;;;10.10;6.33;;;11.70;99.90;;;;;;5054537;28;20207;-33
2022/09/22 00:55:27;;;;;;;7.60;5.30;;;11.60;99.90;;;;;;5048430;28;20234;-33
2022/09/22 00:57:58;;;;;;;8.90;5.13;;;11.60;99.90;;;;;;5061019;28;20752;-33
2022/09/22 01:00:27;;;;;;;8.13;5.20;;;11.60;99.90;;;;;;5047043;28;20206;-33
2022/09/22 01:02:58;;;;;;;6.80;5.10;;;11.60;99.90;;;;;;5056602;28;20294;-33
2022/09/22 01:05:27;;;;;;;7.97;4.90;;;11.60;99.90;;;;;;5051455;28;20209;-33
2022/09/22 01:07:56;;;;;;;8.90;5.10;;;11.60;99.90;;;;;;5050349;28;20212;-32
2022/09/22 01:10:26;;;;;;;8.10;5.37;;;11.50;99.90;;;;;;5047493;28;20631;-30
2022/09/22 01:13:24;;;;;;;8.10;5.20;;;11.50;99.90;;;;;;5051511;28;20254;-31
2022/09/22 01:16:14;;;;;;;9.93;5.57;;;11.50;99.90;;;;;;5050068;28;20233;-31
2022/09/22 01:18:52;;;;;;;10.03;6.17;;;11.50;99.90;;;;;;5041920;28;20301;-31
2022/09/22 01:21:31;;;;;;;8.40;5.30;;;11.50;99.90;;;;;;5036530;28;20211;-32
2022/09/22 01:24:22;;;;;;;7.23;4.60;;;11.40;99.90;;;;;;5054936;28;20297;-31
2022/09/22 01:26:58;;;;;;;7.10;4.90;;;11.40;99.90;;;;;;5053455;28;20301;-31
2022/09/22 01:30:03;;;;;;;6.30;4.40;;;11.40;99.90;;;;;;5045201;28;20728;-31
2022/09/22 01:32:36;;;;;;;6.90;3.77;;;11.40;99.90;;;;;;5051257;28;20219;-30
2022/09/22 01:35:16;;;;;;;6.93;4.57;;;11.30;99.90;;;;;;5054451;28;20215;-31
2022/09/22 01:37:57;;;;;;;6.27;4.47;;;11.30;99.90;;;;;;5062743;28;20308;-31
2022/09/22 01:40:40;;;;;;;5.40;3.40;;;11.30;99.90;;;;;;5048159;28;20239;-31
2022/09/22 01:43:35;;;;;;;7.70;4.43;;;11.30;99.90;;;;;;5055934;28;20664;-31
2022/09/22 01:46:15;;;;;;;8.43;4.27;;;11.20;99.90;;;;;;5051136;28;20204;-32
2022/09/22 01:48:47;;;;;;;9.03;4.97;;;11.20;99.90;;;;;;5073920;28;20214;-31
2022/09/22 01:51:20;;;;;;;11.63;4.80;;;11.20;99.90;;;;;;5061498;28;20223;-32
2022/09/22 01:53:57;;;;;;;9.73;6.50;;;11.10;99.90;;;;;;5048846;28;20211;-31
2022/09/22 01:56:27;;;;;;;10.17;6.20;;;11.10;99.90;;;;;;5049015;28;20223;-32
2022/09/22 01:58:59;;;;;;;7.50;5.43;;;11.10;99.90;;;;;;5044810;28;20235;-33
2022/09/22 02:01:40;;;;;;;11.63;7.00;;;11.00;99.90;;;;;;5048190;28;20282;-33
2022/09/22 02:04:29;;;;;;;8.13;5.43;;;11.00;99.90;;;;;;5061882;28;20710;-31
2022/09/22 02:07:08;;;;;;;10.93;5.60;;;11.00;99.90;;;;;;5051981;28;20256;-33
2022/09/22 02:09:38;;;;;;;10.03;4.93;;;11.00;99.90;;;;;;5048913;28;20229;-32
2022/09/22 02:12:05;;;;;;;7.73;4.23;;;10.90;99.90;;;;;;5062726;28;20196;-31
2022/09/22 02:14:33;;;;;;;8.53;4.83;;;10.90;99.90;;;;;;5065372;28;20207;-31
2022/09/22 02:17:04;;;;;;;10.57;6.53;;;10.90;99.90;;;;;;5055033;28;20226;-32
2022/09/22 02:19:37;;;;;;;15.90;8.27;;;10.80;99.90;;;;;;5060696;28;20203;-32
2022/09/22 02:22:09;;;;;;;14.17;8.50;;;10.80;99.90;;;;;;5054890;28;20763;-32
2022/09/22 02:24:40;;;;;;;12.47;7.50;;;10.80;99.90;;;;;;5059278;28;20199;-32
2022/09/22 02:27:13;;;;;;;16.17;8.40;;;10.80;99.90;;;;;;5055966;28;20239;-32
2022/09/22 02:30:07;;;;;;;13.20;8.60;;;10.70;99.90;;;;;;5048001;28;20326;-31
2022/09/22 02:32:40;;;;;;;11.27;7.10;;;10.70;99.90;;;;;;5056171;28;20208;-31
2022/09/22 02:35:08;;;;;;;11.23;6.33;;;10.70;99.90;;;;;;5046732;28;20208;-32
2022/09/22 02:38:07;;;;;;;17.17;9.23;;;10.70;99.90;;;;;;5052174;28;20212;-31
2022/09/22 02:40:52;;;;;;;10.17;7.13;;;10.70;99.90;;;;;;5046848;28;20200;-33
2022/09/22 02:43:36;;;;;;;10.07;6.70;;;10.60;99.90;;;;;;5044363;28;20208;-32
2022/09/22 02:46:24;;;;;;;8.00;5.77;;;10.60;99.90;;;;;;5046075;28;20863;-31
2022/09/22 02:49:00;;;;;;;10.10;5.37;;;10.60;99.90;;;;;;5072577;28;20206;-32
2022/09/22 02:51:28;;;;;;;9.70;5.37;;;10.60;99.90;;;;;;5061285;28;20215;-32
2022/09/22 02:53:56;;;;;;;7.07;4.60;;;10.50;99.90;;;;;;5056081;28;20227;-32
2022/09/22 02:56:26;;;;;;;6.10;4.30;;;10.50;99.90;;;;;;5051718;28;20223;-32
2022/09/22 02:58:53;;;;;;;7.27;4.50;;;10.50;99.90;;;;;;5053881;28;20304;-31
2022/09/22 03:01:27;;;;;;;8.83;5.53;;;10.50;99.90;;;;;;5062173;28;20333;-31
2022/09/22 03:03:54;;;;;;;6.73;4.90;;;10.50;99.90;;;;;;5063427;28;20277;-32
2022/09/22 03:06:24;;;;;;;10.97;7.03;;;10.50;99.90;;;;;;5052276;28;20204;-32
2022/09/22 03:08:58;;;;;;;12.00;6.67;;;10.40;99.90;;;;;;5061341;28;20208;-31
2022/09/22 03:11:26;;;;;;;9.07;5.80;;;10.40;99.90;;;;;;5057419;28;20203;-32
2022/09/22 03:13:53;;;;;;;9.03;6.20;;;10.40;99.90;;;;;;5052640;28;20670;-32
2022/09/22 03:16:22;;;;;;;9.73;5.70;;;10.40;99.90;;;;;;5050818;28;20242;-31
2022/09/22 03:18:54;;;;;;;9.27;6.70;;;10.40;99.90;;;;;;5046422;28;20319;-32
2022/09/22 03:21:24;;;;;;;8.83;6.10;;;10.40;99.90;;;;;;5044188;28;20564;-31
2022/09/22 03:23:51;;;;;;;10.03;6.27;;;10.40;99.90;;;;;;5043540;28;20676;-32
2022/09/22 03:26:20;;;;;;;10.87;7.23;;;10.30;99.90;;;;;;5053244;28;20290;-32
2022/09/22 03:28:47;;;;;;;14.97;7.60;;;10.30;99.90;;;;;;5060235;28;20207;-32
2022/09/22 03:31:15;;;;;;;11.87;7.30;;;10.30;99.90;;;;;;5066524;28;20240;-32
2022/09/22 03:33:42;;;;;;;9.70;7.00;;;10.30;99.90;;;;;;5046578;28;20307;-32
2022/09/22 03:36:14;;;;;;;11.97;7.57;;;10.30;99.90;;;;;;5050189;28;20223;-32
2022/09/22 03:38:43;;;;;;;13.73;8.67;;;10.20;99.90;;;;;;5064979;28;20196;-33
2022/09/22 03:41:13;;;;;;;9.90;7.33;;;10.20;99.90;;;;;;5063680;28;20989;-32
2022/09/22 03:43:42;;;;;;;7.87;6.03;;;10.20;99.90;;;;;;5056061;28;20727;-32
2022/09/22 03:46:10;;;;;;;8.43;6.30;;;10.20;99.90;;;;;;5057852;28;20261;-32
2022/09/22 03:48:42;;;;;;;9.47;5.90;;;10.20;99.90;;;;;;5064341;28;20238;-32
2022/09/22 03:51:13;;;;;;;8.10;5.33;;;10.20;99.90;;;;;;5057868;28;20215;-32
2022/09/22 03:53:43;;;;;;;7.57;5.97;;;10.20;99.90;;;;;;5061447;28;20750;-32
2022/09/22 03:56:12;;;;;;;9.23;5.67;;;10.20;99.90;;;;;;5049015;28;20222;-33
2022/09/22 03:58:44;;;;;;;6.77;5.90;;;10.10;99.90;;;;;;5051924;28;20784;-33
2022/09/22 04:01:12;;;;;;;8.93;6.57;;;10.10;99.90;;;;;;5058639;28;20690;-33
2022/09/22 04:03:39;;;;;;;12.23;7.33;;;10.10;99.90;;;;;;5051591;28;20204;-32
2022/09/22 04:06:09;;;;;;;10.90;7.13;;;10.10;99.90;;;;;;5050970;28;20212;-33
2022/09/22 04:08:37;;;;;;;8.87;6.00;;;10.10;99.90;;;;;;5038493;28;20220;-32
2022/09/22 04:11:05;;;;;;;8.67;6.53;;;10.00;99.90;;;;;;5064839;28;20199;-32
2022/09/22 04:13:34;;;;;;;9.17;6.50;;;10.00;99.90;;;;;;5044969;28;20223;-32
2022/09/22 04:16:02;;;;;;;7.63;6.30;;;10.00;99.90;;;;;;5061712;28;20247;-32
2022/09/22 04:18:32;;;;;;;8.30;5.97;;;10.00;99.90;;;;;;5063069;28;20686;-32
2022/09/22 04:21:00;;;;;;;8.33;5.83;;;10.00;99.90;;;;;;5055649;28;20203;-32
2022/09/22 04:23:29;;;;;;;8.67;6.27;;;10.00;99.90;;;;;;5056766;28;20211;-32
2022/09/22 04:25:56;;;;;;;10.50;6.73;;;10.00;99.90;;;;;;5047127;28;20200;-32
2022/09/22 04:28:28;;;;;;;10.50;7.27;;;9.90;99.90;;;;;;5063240;28;20273;-32
2022/09/22 04:30:56;;;;;;;11.90;8.03;;;9.90;99.90;;;;;;5052065;28;20208;-33
2022/09/22 04:33:26;;;;;;;13.50;9.30;;;9.90;99.90;;;;;;5051112;28;20295;-32
2022/09/22 04:35:53;;;;;;;14.03;9.80;;;9.90;99.90;;;;;;5062292;28;20215;-33
2022/09/22 04:38:22;;;;;;;12.17;8.17;;;9.90;99.90;;;;;;5048262;28;20208;-33
2022/09/22 04:40:51;;;;;;;11.57;7.30;;;9.90;99.90;;;;;;5060082;28;20203;-42
2022/09/22 04:43:18;;;;;;;12.60;7.00;;;9.90;99.90;;;;;;5064243;28;20237;-33
2022/09/22 04:45:48;;;;;;;9.43;6.70;;;9.90;99.90;;;;;;5049505;28;20204;-32
2022/09/22 04:48:15;;;;;;;9.60;6.47;;;9.80;99.90;;;;;;5060586;28;20642;-34
2022/09/22 04:50:47;;;;;;;8.57;6.03;;;9.80;99.90;;;;;;5062550;28;20204;-33
2022/09/22 04:53:17;;;;;;;12.13;6.87;;;9.80;99.90;;;;;;5062601;28;20365;-32
2022/09/22 04:55:44;;;;;;;7.67;6.40;;;9.80;99.90;;;;;;5056449;28;20252;-33
2022/09/22 04:58:16;;;;;;;10.93;7.03;;;9.80;99.90;;;;;;5056708;28;20235;-33
2022/09/22 05:00:43;;;;;;;10.47;8.03;;;9.70;99.90;;;;;;5049193;28;20196;-33
2022/09/22 05:03:14;;;;;;;10.47;7.77;;;9.70;99.90;;;;;;5046286;28;20583;-32
2022/09/22 05:05:54;;;;;;;10.87;8.43;;;9.70;99.90;;;;;;5053808;28;20202;-32
2022/09/22 05:08:21;;;;;;;15.47;8.77;;;9.70;99.90;;;;;;5047813;28;20200;-33
2022/09/22 05:10:48;;;;;;;12.97;8.27;;;9.70;99.90;;;;;;5048867;28;20207;-32
2022/09/22 05:13:20;;;;;;;9.53;7.03;;;9.70;99.90;;;;;;5052239;28;20224;-32
2022/09/22 05:15:50;;;;;;;9.00;6.87;;;9.70;99.90;;;;;;5049140;28;20225;-32
2022/09/22 05:18:17;;;;;;;9.57;6.43;;;9.70;99.90;;;;;;5049014;28;20227;-32
2022/09/22 05:20:44;;;;;;;8.37;6.70;;;9.70;99.90;;;;;;5048132;28;20317;-32
2022/09/22 05:23:13;;;;;;;10.37;6.50;;;9.70;99.90;;;;;;5045583;28;20870;-32
2022/09/22 05:25:43;;;;;;;9.17;6.33;;;9.60;99.90;;;;;;5045596;28;20216;-32
2022/09/22 05:28:13;;;;;;;9.03;6.67;;;9.60;99.90;;;;;;5048028;28;20680;-32
2022/09/22 05:30:40;;;;;;;12.07;7.57;;;9.60;99.90;;;;;;5055279;28;20223;-32
2022/09/22 05:33:14;;;;;;;14.30;7.97;;;9.60;99.90;;;;;;5047007;28;20514;-32
2022/09/22 05:35:41;;;;;;;16.57;8.57;;;9.60;99.90;;;;;;5054152;28;20289;-32
2022/09/22 05:38:08;;;;;;;13.13;9.07;;;9.50;99.90;;;;;;5059552;28;20346;-33
2022/09/22 05:40:35;;;;;;;14.47;9.27;;;9.50;99.90;;;;;;5050128;28;20283;-32
2022/09/22 05:43:05;;;;;;;11.70;8.13;;;9.50;99.90;;;;;;5052366;28;20323;-32
2022/09/22 05:45:32;;;;;;;16.63;8.37;;;9.50;99.90;;;;;;5052817;28;20207;-32
2022/09/22 05:48:00;;;;;;;16.43;9.70;;;9.50;99.90;;;;;;5056090;28;20214;-32
2022/09/22 05:50:27;;;;;;;15.20;8.20;;;9.50;99.90;;;;;;5054381;28;20574;-32
2022/09/22 05:53:11;;;;;;;11.40;6.97;;;9.50;99.90;;;;;;5060161;28;20219;-32
2022/09/22 05:55:39;;;;;;;10.90;6.20;;;9.50;99.90;;;;;;5065395;28;20203;-32
2022/09/22 05:58:10;;;;;;;10.07;6.40;;;9.50;99.90;;;;;;5055850;28;20224;-32
2022/09/22 06:00:40;;;;;;;9.63;6.13;;;9.50;99.90;;;;;;5047969;28;20218;-32
2022/09/22 06:03:08;;;;;;;8.73;6.30;;;9.50;99.90;;;;;;5052836;28;20208;-32
2022/09/22 06:05:35;;;;;;;9.77;6.50;;;9.50;99.90;;;;;;5049583;28;20203;-32
2022/09/22 06:08:05;;;;;;;8.70;6.20;;;9.40;99.90;;;;;;5056347;28;20207;-32
2022/09/22 06:10:37;;;;;;;11.10;6.10;;;9.50;99.90;;;;;;5051955;28;20950;-33
2022/09/22 06:13:08;;;;;;;12.23;6.83;;;9.50;99.90;;;;;;5048488;28;20203;-32
2022/09/22 06:15:38;;;;;;;11.20;6.10;;;9.50;99.90;;;;;;5037492;28;20391;-32
2022/09/22 06:18:07;;;;;;;8.33;6.80;;;9.50;99.90;;;;;;5047572;28;20234;-32
2022/09/22 06:20:45;;;;;;;11.10;6.47;;;9.50;99.90;;;;;;5046223;28;20256;-33
2022/09/22 06:23:14;;;;;;;11.50;6.40;;;9.50;99.90;;;;;;5056281;28;20223;-32
2022/09/22 06:25:42;;;;;;;12.17;7.20;;;9.50;99.90;;;;;;5064260;28;20502;-32
2022/09/22 06:28:13;;;;;;;8.67;6.60;;;9.50;99.90;;;;;;5054160;28;20470;-32
2022/09/22 06:30:42;;;;;;;16.47;7.33;;;9.50;99.90;;;;;;5052545;28;20666;-32
2022/09/22 06:33:10;;;;;;;10.63;7.60;;;9.50;99.90;;;;;;5053647;28;20682;-32
2022/09/22 06:35:41;;;;;;;10.87;7.63;;;9.60;99.90;;;;;;5044678;28;20208;-32
2022/09/22 06:38:13;;;;;;;11.37;7.63;;;9.60;99.90;;;;;;5049126;28;20235;-32
2022/09/22 06:40:42;;;;;;;11.57;7.00;;;9.60;99.90;;;;;;5049119;28;20557;-32
2022/09/22 06:43:21;;;;;;;10.63;6.47;;;9.60;99.90;;;;;;5051297;28;20682;-32
2022/09/22 06:45:51;;;;;;;10.17;7.00;;;9.70;99.90;;;;;;5058843;28;20221;-32
2022/09/22 06:48:22;;;;;;;12.23;7.40;;;9.70;99.90;;;;;;5065014;28;20555;-32
2022/09/22 06:50:52;;;;;;;12.50;7.23;;;9.70;99.90;;;;;;5060402;28;20254;-32
2022/09/22 06:53:19;;;;;;;10.17;6.87;;;9.80;99.90;;;;;;5047240;28;20203;-32
2022/09/22 06:55:51;;;;;;;14.30;7.77;;;9.80;99.90;;;;;;5051853;28;20665;-32
2022/09/22 06:58:22;;;;;;;10.73;7.57;;;9.90;99.90;;;;;;5051034;28;20258;-33
2022/09/22 07:00:50;;;;;;;9.70;7.97;;;9.90;99.90;;;;;;5053638;28;20630;-32
2022/09/22 07:03:21;;;;;;;12.27;7.57;;;9.90;99.90;;;;;;5064658;28;20203;-31
2022/09/22 07:05:59;;;;;;;12.23;7.67;;;10.00;99.90;;;;;;5058344;28;20661;-32
2022/09/22 07:08:33;;;;;;;11.70;8.00;;;10.00;99.90;;;;;;5062447;28;20265;-32
2022/09/22 07:11:08;;;;;;;10.47;7.40;;;10.10;99.90;;;;;;5067072;28;20242;-33
2022/09/22 07:13:41;;;;;;;10.43;8.33;;;10.10;99.90;;;;;;5058884;28;20206;-33
2022/09/22 07:16:08;;;;;;;9.87;7.90;;;10.20;99.90;;;;;;5062021;28;20815;-32
2022/09/22 07:18:41;;;;;;;11.13;8.33;;;10.20;99.90;;;;;;5066127;28;20691;-32
2022/09/22 07:21:11;;;;;;;12.50;8.67;;;10.30;99.90;;;;;;5065098;28;20580;-33
2022/09/22 07:23:43;;;;;;;14.53;8.57;;;10.30;99.90;;;;;;5061872;28;20227;-32
2022/09/22 07:26:14;;;;;;;11.07;8.17;;;10.40;99.90;;;;;;5059749;28;20963;-32
2022/09/22 07:28:49;;;;;;;18.00;8.47;;;10.40;99.90;;;;;;5053698;28;20231;-32
2022/09/22 07:31:16;;;;;;;15.67;8.57;;;10.50;99.90;;;;;;5046762;28;20670;-32
2022/09/22 07:33:46;;;;;;;14.70;8.13;;;10.50;99.90;;;;;;5050178;28;20226;-33
2022/09/22 07:36:14;;;;;;;10.60;8.33;;;10.60;99.90;;;;;;5055909;28;20203;-34
2022/09/22 07:38:43;;;;;;;10.37;7.83;;;10.70;99.90;;;;;;5054088;28;20318;-32
2022/09/22 07:41:16;;;;;;;11.63;7.80;;;10.70;99.90;;;;;;5045681;28;20212;-32
2022/09/22 07:43:49;;;;;;;11.43;7.53;;;10.80;99.90;;;;;;5046601;28;20215;-32
2022/09/22 07:46:21;;;;;;;12.30;7.40;;;10.90;99.90;;;;;;5080808;28;20211;-32
2022/09/22 07:48:54;;;;;;;9.33;7.00;;;11.00;99.90;;;;;;5074392;28;20203;-32
2022/09/22 07:51:26;;;;;;;13.53;6.67;;;11.00;99.90;;;;;;5045547;28;20227;-32
2022/09/22 07:54:06;;;;;;;10.97;6.17;;;11.10;99.90;;;;;;5047754;28;20207;-32
2022/09/22 07:56:43;;;;;;;9.27;6.60;;;11.10;99.90;;;;;;5047283;28;20607;-32
2022/09/22 07:59:17;;;;;;;9.27;6.57;;;11.20;99.90;;;;;;5050751;28;20238;-32
2022/09/22 08:01:49;;;;;;;7.60;6.47;;;11.30;99.90;;;;;;5049356;28;20204;-32
2022/09/22 08:04:21;;;;;;;10.10;5.93;;;11.30;99.90;;;;;;5051662;28;20294;-32
2022/09/22 08:06:54;;;;;;;8.07;5.80;;;11.40;99.90;;;;;;5065904;28;20207;-32
2022/09/22 08:09:24;;;;;;;12.63;6.00;;;11.50;99.90;;;;;;5046496;28;20232;-32
2022/09/22 08:11:54;;;;;;;9.70;6.93;;;11.60;99.90;;;;;;5047410;28;20730;-32
2022/09/22 08:14:29;;;;;;;9.70;6.03;;;11.60;99.90;;;;;;5052562;28;20206;-33
2022/09/22 08:16:59;;;;;;;10.80;6.00;;;11.70;99.90;;;;;;5059345;28;20268;-33
2022/09/22 08:19:28;;;;;;;7.47;5.37;;;11.80;99.90;;;;;;5047434;28;20196;-32
2022/09/22 08:21:58;;;;;;;8.83;5.50;;;11.80;99.90;;;;;;5058242;28;20235;-33
2022/09/22 08:24:28;;;;;;;8.53;5.10;;;11.90;99.90;;;;;;5062405;28;20583;-32
2022/09/22 08:26:58;;;;;;;9.93;5.03;;;11.90;99.90;;;;;;5050753;28;20216;-32
2022/09/22 08:29:27;;;;;;;9.87;4.83;;;12.00;99.90;;;;;;5048569;28;20204;-33
2022/09/22 08:31:56;;;;;;;8.87;4.80;;;12.10;99.90;;;;;;5062865;28;20199;-32
2022/09/22 08:34:26;;;;;;;10.83;5.23;;;12.20;99.90;;;;;;5064028;28;20200;-32
2022/09/22 08:36:54;;;;;;;12.67;5.87;;;12.20;99.90;;;;;;5060942;28;20569;-32
2022/09/22 08:39:21;;;;;;;9.67;5.10;;;12.30;99.90;;;;;;5063728;28;20721;-32
2022/09/22 08:42:04;;;;;;;8.60;5.00;;;12.40;99.90;;;;;;5058741;28;20207;-32
2022/09/22 08:44:52;;;;;;;5.40;3.60;;;12.50;99.90;;;;;;5046917;28;20211;-32
2022/09/22 08:53:46;;;;;;;10.60;3.40;;;12.70;99.90;;;;;;5054885;28;20825;-32
2022/09/22 08:56:29;;;;;;;10.93;3.23;;;12.80;99.90;;;;;;5054508;28;20588;-32
2022/09/22 08:59:25;;;;;;;15.97;4.40;;;12.90;99.90;;;;;;5055010;28;20268;-32
2022/09/22 09:02:23;;;;;;;7.10;3.40;;;13.00;99.90;;;;;;5048496;28;20197;-32
2022/09/22 09:04:56;;;;;;;5.60;2.90;;;13.10;99.90;;;;;;5045423;28;20215;-32
2022/09/22 09:07:36;;;;;;;7.27;2.50;;;13.20;99.90;;;;;;5050838;28;21039;-32
2022/09/22 09:10:25;;;;;;;7.67;2.37;;;13.30;99.90;;;;;;5056153;28;20210;-32
2022/09/22 09:13:41;;;;;;;6.70;2.70;;;13.40;99.90;;;;;;5046949;28;20223;-32
2022/09/22 09:16:17;;;;;;;6.70;2.50;;;13.50;99.90;;;;;;5080308;28;20211;-32
2022/09/22 09:18:59;;;;;;;6.90;2.40;;;13.60;99.90;;;;;;5063369;28;20222;-32
2022/09/22 09:21:30;;;;;;;5.60;2.10;;;13.70;99.90;;;;;;5064659;28;20223;-32
2022/09/22 09:24:03;;;;;;;6.17;1.90;;;13.70;99.90;;;;;;5064700;28;20721;-32
2022/09/22 09:26:51;;;;;;;6.27;2.10;;;13.80;99.90;;;;;;5057780;28;20212;-32
2022/09/22 09:29:23;;;;;;;5.23;1.80;;;13.90;99.90;;;;;;5056307;28;20227;-32
2022/09/22 09:31:53;;;;;;;3.57;1.40;;;14.00;99.90;;;;;;5047427;28;20638;-32
2022/09/22 09:34:27;;;;;;;2.67;1.40;;;14.10;99.90;;;;;;5045255;28;20586;-32
2022/09/22 09:37:07;;;;;;;1.70;1.17;;;14.20;99.90;;;;;;5049089;28;20203;-32
2022/09/22 09:39:40;;;;;;;4.97;1.77;;;14.30;99.90;;;;;;5047950;28;20636;-32
2022/09/22 09:42:20;;;;;;;3.90;1.27;;;14.40;99.90;;;;;;5059401;28;20208;-32
2022/09/22 09:44:52;;;;;;;3.30;1.47;;;14.50;99.90;;;;;;5054368;28;20228;-32
2022/09/22 09:47:56;;;;;;;2.60;1.30;;;14.60;99.90;;;;;;5045479;28;20286;-32
2022/09/22 09:50:30;;;;;;;1.87;1.30;;;14.60;99.90;;;;;;5052633;28;20207;-32
2022/09/22 09:52:59;;;;;;;2.27;1.23;;;14.70;99.90;;;;;;5043941;28;20204;-32
2022/09/22 09:55:34;;;;;;;2.53;1.33;;;14.80;99.90;;;;;;5052643;28;20211;-32
2022/09/22 09:58:08;;;;;;;3.70;1.60;;;14.90;99.90;;;;;;5051028;28;20227;-33
2022/09/22 10:00:56;;;;;;;2.77;1.33;;;14.90;99.90;;;;;;5052261;28;20688;-32
2022/09/22 10:03:31;;;;;;;1.23;1.07;;;15.00;99.90;;;;;;5050950;28;20307;-32
2022/09/22 10:06:05;;;;;;;1.90;1.20;;;15.10;99.90;;;;;;5059369;28;20207;-32
2022/09/22 10:08:48;;;;;;;3.97;1.57;;;15.20;99.90;;;;;;5060995;28;20211;-32
2022/09/22 10:11:26;;;;;;;3.20;1.40;;;15.20;99.90;;;;;;5043491;28;20200;-32
2022/09/22 10:13:57;;;;;;;2.87;1.10;;;15.30;99.90;;;;;;5048184;28;20242;-32
2022/09/22 10:16:32;;;;;;;1.60;0.90;;;15.40;99.90;;;;;;5049466;28;21451;-32
2022/09/22 10:19:28;;;;;;;2.43;0.90;;;15.50;99.90;;;;;;5060189;28;20780;-32
2022/09/22 10:22:27;;;;;;;2.93;1.10;;;15.50;99.90;;;;;;5043170;28;20254;-32
2022/09/22 10:25:06;;;;;;;1.40;1.00;;;15.60;99.90;;;;;;5044672;28;20608;-32
2022/09/22 10:27:34;;;;;;;2.57;1.20;;;15.70;99.90;;;;;;5047828;28;20195;-32
2022/09/22 10:30:12;;;;;;;1.67;0.90;;;15.70;99.90;;;;;;5064519;28;20686;-32
2022/09/22 10:32:40;;;;;;;3.17;1.07;;;15.80;99.90;;;;;;5063882;28;20314;-32
2022/09/22 10:35:34;;;;;;;0.70;0.70;;;15.90;99.90;;;;;;5061029;28;20204;-32
2022/09/22 10:38:11;;;;;;;2.97;1.10;;;16.00;99.90;;;;;;5050714;28;20459;-32
2022/09/22 10:40:43;;;;;;;2.30;1.07;;;16.00;99.90;;;;;;5059541;28;20788;-32
2022/09/22 10:43:34;;;;;;;1.83;0.80;;;16.10;99.90;;;;;;5063903;28;20200;-32
2022/09/22 10:46:16;;;;;;;5.37;1.50;;;16.20;99.90;;;;;;5048208;28;20216;-32
2022/09/22 10:48:49;;;;;;;4.80;1.30;;;16.20;99.90;;;;;;5078399;28;20644;-32
2022/09/22 10:51:55;;;;;;;3.17;0.80;;;16.30;99.90;;;;;;5062478;28;20553;-32
2022/09/22 10:54:41;;;;;;;2.37;0.80;;;16.40;99.90;;;;;;5055089;28;20199;-32
2022/09/22 10:57:51;;;;;;;1.70;0.70;;;16.40;99.90;;;;;;5047767;28;20600;-32
2022/09/22 11:00:20;;;;;;;0.80;0.80;;;16.50;99.90;;;;;;5052109;28;20207;-32
2022/09/22 11:03:15;;;;;;;1.23;1.00;;;16.50;99.90;;;;;;5062160;28;20572;-32
2022/09/22 11:12:49;;;;;;;2.03;1.10;;;16.60;99.90;;;;;;5048032;28;20223;-32
2022/09/22 11:15:56;;;;;;;2.07;1.00;;;16.70;99.90;;;;;;5047729;28;20212;-32
2022/09/22 11:18:44;;;;;;;3.73;1.20;;;16.80;99.90;;;;;;5055783;28;20359;-32
2022/09/22 11:21:37;;;;;;;3.10;0.90;;;16.80;99.90;;;;;;5051801;28;20593;-32
2022/09/22 11:24:37;;;;;;;3.53;1.27;;;16.90;99.90;;;;;;5055873;28;20674;-32
2022/09/22 11:27:14;;;;;;;3.07;1.00;;;16.90;99.90;;;;;;5062975;28;20611;-32
2022/09/22 11:29:45;;;;;;;1.50;1.10;;;17.00;99.90;;;;;;5052818;28;20214;-32
2022/09/22 11:32:53;;;;;;;1.87;1.10;;;17.00;99.90;;;;;;5049973;28;20282;-32
2022/09/22 11:35:29;;;;;;;2.27;1.10;;;17.00;99.90;;;;;;5059775;28;21220;-32
2022/09/22 11:38:24;;;;;;;3.30;1.20;;;17.10;99.90;;;;;;5057278;28;20219;-32
2022/09/22 11:40:59;;;;;;;6.50;1.27;;;17.10;99.90;;;;;;5063572;28;20308;-32
2022/09/22 11:43:39;;;;;;;4.47;1.17;;;17.20;99.90;;;;;;5063746;28;20203;-32
2022/09/22 11:46:34;;;;;;;7.80;1.30;;;17.20;99.90;;;;;;5054077;28;20620;-33
2022/09/22 11:49:24;;;;;;;5.00;1.10;;;17.20;99.90;;;;;;5068164;28;20400;-33
2022/09/22 11:52:10;;;;;;;1.40;0.67;;;17.30;99.90;;;;;;5065191;28;20582;-33
2022/09/22 11:55:01;;;;;;;1.70;0.80;;;17.30;99.90;;;;;;5057376;28;20659;-33
2022/09/22 11:57:38;;;;;;;6.50;1.30;;;17.40;99.90;;;;;;5050616;28;20211;-33
2022/09/22 12:00:17;;;;;;;2.07;0.80;;;17.40;99.90;;;;;;5055029;28;20608;-33
2022/09/22 12:02:59;;;;;;;0.60;0.40;;;17.50;99.90;;;;;;5050377;28;20208;-33
2022/09/22 12:05:42;;;;;;;1.43;0.67;;;17.50;99.90;;;;;;5053145;28;20215;-32
2022/09/22 12:08:24;;;;;;;1.83;0.80;;;17.50;99.90;;;;;;5052812;28;20226;-33
2022/09/22 12:10:55;;;;;;;0.63;0.60;;;17.60;99.90;;;;;;5064419;28;20255;-33
2022/09/22 12:13:25;;;;;;;0.90;0.70;;;17.60;99.90;;;;;;5056564;28;20208;-32
2022/09/22 12:15:57;;;;;;;0.60;0.60;;;17.70;99.90;;;;;;5065346;28;20236;-33
2022/09/22 12:18:32;;;;;;;1.03;0.70;;;17.70;99.90;;;;;;5051748;28;20226;-33
2022/09/22 12:21:26;;;;;;;0.90;0.60;;;17.80;99.90;;;;;;5054821;28;20191;-33
2022/09/22 12:24:01;;;;;;;2.37;0.80;;;17.80;99.90;;;;;;5065979;28;20212;-33
2022/09/22 12:26:37;;;;;;;0.87;0.60;;;17.90;99.90;;;;;;5053524;28;20203;-33
2022/09/22 12:29:28;;;;;;;0.83;0.60;;;17.90;99.90;;;;;;5055268;28;20681;-33
2022/09/22 12:31:57;;;;;;;1.87;0.80;;;17.90;99.90;;;;;;5054484;28;20207;-33
2022/09/22 12:34:25;;;;;;;0.60;0.57;;;17.90;99.90;;;;;;5044853;28;20214;-33
2022/09/22 12:37:27;;;;;;;2.97;0.80;;;18.00;99.90;;;;;;5056889;28;20203;-34
2022/09/22 12:40:00;;;;;;;1.93;0.80;;;18.00;99.90;;;;;;5063978;28;20335;-33
2022/09/22 12:42:38;;;;;;;5.80;0.90;;;18.00;99.90;;;;;;5058605;28;20293;-33
2022/09/22 12:45:27;;;;;;;2.83;0.80;;;18.00;99.90;;;;;;5054105;28;20787;-35
2022/09/22 12:47:58;;;;;;;17.87;3.53;;;18.10;99.90;;;;;;5049503;28;20739;-33
2022/09/22 12:50:38;;;;;;;7.53;1.80;;;18.10;99.90;;;;;;5045367;28;20737;-33
2022/09/22 12:53:20;;;;;;;0.80;0.73;;;18.10;99.90;;;;;;5052356;28;20200;-33
2022/09/22 12:55:54;;;;;;;2.27;0.80;;;18.20;99.90;;;;;;5047445;28;20223;-33
2022/09/22 12:58:22;;;;;;;1.00;0.90;;;18.20;99.90;;;;;;5045553;28;20280;-33
2022/09/22 13:01:32;;;;;;;1.57;1.07;;;18.20;99.90;;;;;;5061039;28;20212;-33
2022/09/22 13:04:15;;;;;;;0.67;0.63;;;18.30;99.90;;;;;;5047757;28;20204;-33
2022/09/22 13:06:44;;;;;;;2.00;0.60;;;18.30;99.90;;;;;;5050825;28;20207;-33
2022/09/22 13:09:24;;;;;;;3.77;0.80;;;18.30;99.90;;;;;;5050511;28;20621;-34
2022/09/22 13:12:10;;;;;;;1.87;0.97;;;18.40;99.90;;;;;;5046699;28;20708;-33
2022/09/22 13:15:10;;;;;;;1.27;0.73;;;18.40;99.90;;;;;;5063008;28;20682;-33
2022/09/22 13:17:41;;;;;;;7.13;1.33;;;18.40;99.90;;;;;;5048217;28;20590;-34
2022/09/22 13:20:22;;;;;;;2.03;1.00;;;18.40;99.90;;;;;;5058462;28;20306;-34
2022/09/22 13:22:51;;;;;;;13.53;2.20;;;18.50;99.90;;;;;;5063130;28;20195;-33
2022/09/22 13:25:29;;;;;;;18.73;2.47;;;18.50;99.90;;;;;;5056270;28;20223;-33
2022/09/22 13:28:13;;;;;;;7.20;2.10;;;18.50;99.90;;;;;;5053551;28;20222;-34
2022/09/22 13:30:42;;;;;;;3.33;1.23;;;18.60;99.90;;;;;;5045876;28;20297;-33
2022/09/22 13:33:25;;;;;;;1.83;0.90;;;18.60;99.90;;;;;;5045207;28;20235;-34
2022/09/22 13:36:03;;;;;;;4.40;1.00;;;18.60;99.90;;;;;;5044625;28;20208;-33
2022/09/22 13:38:36;;;;;;;2.10;0.80;;;18.60;99.90;;;;;;5057186;28;20219;-34
2022/09/22 13:41:22;;;;;;;3.57;1.20;;;18.70;99.90;;;;;;5063840;28;20203;-34